sensor_id;sensor_type;location;lat;lon;timestamp;temperature;humidity
5578;DHT22;2811;51.900;10.734;2023-09-30T00:00:46;14.30;99.90
5578;DHT22;2811;51.900;10.734;2023-09-30T00:03:13;14.40;99.90
5578;DHT22;2811;51.900;10.734;2023-09-30T00:05:40;14.40;99.90
5578;DHT22;2811;51.900;10.734;2023-09-30T00:08:08;14.50;99.90
5578;DHT22;2811;51.900;10.734;2023-09-30T00:10:35;14.40;99.90
5578;DHT22;2811;51.900;10.734;2023-09-30T00:13:02;14.40;99.90
5578;DHT22;2811;51.900;10.734;2023-09-30T00:15:29;14.30;99.90
5578;DHT22;2811;51.900;10.734;2023-09-30T00:17:55;14.30;99.90
5578;DHT22;2811;51.900;10.734;2023-09-30T00:20:22;14.40;99.90
5578;DHT22;2811;51.900;10.734;2023-09-30T00:22:49;14.40;99.90
5578;DHT22;2811;51.900;10.734;2023-09-30T00:25:17;14.40;99.90
5578;DHT22;2811;51.900;10.734;2023-09-30T00:27:44;14.20;99.90
5578;DHT22;2811;51.900;10.734;2023-09-30T00:30:11;14.10;99.90
5578;DHT22;2811;51.900;10.734;2023-09-30T00:32:38;14.10;99.90
5578;DHT22;2811;51.900;10.734;2023-09-30T00:35:06;14.10;99.90
5578;DHT22;2811;51.900;10.734;2023-09-30T00:37:37;14.20;99.90
5578;DHT22;2811;51.900;10.734;2023-09-30T00:40:04;14.20;99.90
5578;DHT22;2811;51.900;10.734;2023-09-30T00:42:33;14.10;99.90
5578;DHT22;2811;51.900;10.734;2023-09-30T00:44:59;14.10;99.90
5578;DHT22;2811;51.900;10.734;2023-09-30T00:47:26;14.00;99.90
5578;DHT22;2811;51.900;10.734;2023-09-30T00:49:53;14.00;99.90
5578;DHT22;2811;51.900;10.734;2023-09-30T00:52:20;14.10;99.90
5578;DHT22;2811;51.900;10.734;2023-09-30T00:54:49;14.00;99.90
5578;DHT22;2811;51.900;10.734;2023-09-30T00:57:16;14.10;99.90
5578;DHT22;2811;51.900;10.734;2023-09-30T00:59:45;14.00;99.90
5578;DHT22;2811;51.900;10.734;2023-09-30T01:02:12;14.00;99.90
5578;DHT22;2811;51.900;10.734;2023-09-30T01:04:39;14.00;99.90
5578;DHT22;2811;51.900;10.734;2023-09-30T01:07:06;13.90;99.90
5578;DHT22;2811;51.900;10.734;2023-09-30T01:09:33;13.90;99.90
5578;DHT22;2811;51.900;10.734;2023-09-30T01:12:02;13.90;99.90
5578;DHT22;2811;51.900;10.734;2023-09-30T01:14:30;13.90;99.90
5578;DHT22;2811;51.900;10.734;2023-09-30T01:16:58;13.90;99.90
5578;DHT22;2811;51.900;10.734;2023-09-30T01:19:25;13.90;99.90
5578;DHT22;2811;51.900;10.734;2023-09-30T01:21:54;13.90;99.90
5578;DHT22;2811;51.900;10.734;2023-09-30T01:24:24;13.90;99.90
5578;DHT22;2811;51.900;10.734;2023-09-30T01:26:51;13.80;99.90
5578;DHT22;2811;51.900;10.734;2023-09-30T01:29:18;14.00;99.90
5578;DHT22;2811;51.900;10.734;2023-09-30T01:31:45;14.00;99.90
5578;DHT22;2811;51.900;10.734;2023-09-30T01:34:13;13.90;99.90
5578;DHT22;2811;51.900;10.734;2023-09-30T01:36:40;13.80;99.90
5578;DHT22;2811;51.900;10.734;2023-09-30T01:39:08;13.90;99.90
5578;DHT22;2811;51.900;10.734;2023-09-30T01:41:36;13.80;99.90
5578;DHT22;2811;51.900;10.734;2023-09-30T01:44:03;13.90;99.90
5578;DHT22;2811;51.900;10.734;2023-09-30T01:46:29;14.00;99.90
5578;DHT22;2811;51.900;10.734;2023-09-30T01:48:56;13.90;99.90
5578;DHT22;2811;51.900;10.734;2023-09-30T01:51:23;13.70;99.90
5578;DHT22;2811;51.900;10.734;2023-09-30T01:53:50;13.70;99.90
5578;DHT22;2811;51.900;10.734;2023-09-30T01:56:18;13.60;99.90
5578;DHT22;2811;51.900;10.734;2023-09-30T01:58:45;13.60;99.90
5578;DHT22;2811;51.900;10.734;2023-09-30T02:01:12;13.60;99.90
5578;DHT22;2811;51.900;10.734;2023-09-30T02:03:39;13.60;99.90
5578;DHT22;2811;51.900;10.734;2023-09-30T02:06:07;13.60;99.90
5578;DHT22;2811;51.900;10.734;2023-09-30T02:08:35;13.60;99.90
5578;DHT22;2811;51.900;10.734;2023-09-30T02:11:02;13.60;99.90
5578;DHT22;2811;51.900;10.734;2023-09-30T02:13:32;13.60;99.90
5578;DHT22;2811;51.900;10.734;2023-09-30T02:16:00;13.50;99.90
5578;DHT22;2811;51.900;10.734;2023-09-30T02:18:27;13.60;99.90
5578;DHT22;2811;51.900;10.734;2023-09-30T02:20:53;13.60;99.90
5578;DHT22;2811;51.900;10.734;2023-09-30T02:23:20;13.60;99.90
5578;DHT22;2811;51.900;10.734;2023-09-30T02:25:48;13.60;99.90
5578;DHT22;2811;51.900;10.734;2023-09-30T02:28:15;13.60;99.90
5578;DHT22;2811;51.900;10.734;2023-09-30T02:30:43;13.60;99.90
5578;DHT22;2811;51.900;10.734;2023-09-30T02:33:09;13.60;99.90
5578;DHT22;2811;51.900;10.734;2023-09-30T02:35:36;13.60;99.90
5578;DHT22;2811;51.900;10.734;2023-09-30T02:38:04;13.50;99.90
5578;DHT22;2811;51.900;10.734;2023-09-30T02:40:32;13.50;99.90
5578;DHT22;2811;51.900;10.734;2023-09-30T02:42:59;13.60;99.90
5578;DHT22;2811;51.900;10.734;2023-09-30T02:45:26;13.50;99.90
5578;DHT22;2811;51.900;10.734;2023-09-30T02:47:54;13.50;99.90
5578;DHT22;2811;51.900;10.734;2023-09-30T02:50:20;13.50;99.90
5578;DHT22;2811;51.900;10.734;2023-09-30T02:52:47;13.50;99.90
5578;DHT22;2811;51.900;10.734;2023-09-30T02:55:15;13.50;99.90
5578;DHT22;2811;51.900;10.734;2023-09-30T02:57:42;13.50;99.90
5578;DHT22;2811;51.900;10.734;2023-09-30T03:00:10;13.60;99.90
5578;DHT22;2811;51.900;10.734;2023-09-30T03:02:49;13.60;99.90
5578;DHT22;2811;51.900;10.734;2023-09-30T03:05:17;13.60;99.90
5578;DHT22;2811;51.900;10.734;2023-09-30T03:07:45;13.60;99.90
5578;DHT22;2811;51.900;10.734;2023-09-30T03:10:12;13.60;99.90
5578;DHT22;2811;51.900;10.734;2023-09-30T03:12:39;13.50;99.90
5578;DHT22;2811;51.900;10.734;2023-09-30T03:15:07;13.60;99.90
5578;DHT22;2811;51.900;10.734;2023-09-30T03:17:34;13.50;99.90
5578;DHT22;2811;51.900;10.734;2023-09-30T03:20:04;13.60;99.90
5578;DHT22;2811;51.900;10.734;2023-09-30T03:22:38;13.70;99.90
5578;DHT22;2811;51.900;10.734;2023-09-30T03:25:06;13.80;99.90
5578;DHT22;2811;51.900;10.734;2023-09-30T03:27:34;13.70;99.90
5578;DHT22;2811;51.900;10.734;2023-09-30T03:30:02;13.70;99.90
5578;DHT22;2811;51.900;10.734;2023-09-30T03:32:29;13.60;99.90
5578;DHT22;2811;51.900;10.734;2023-09-30T03:34:56;13.70;99.90
5578;DHT22;2811;51.900;10.734;2023-09-30T03:37:24;13.60;99.90
5578;DHT22;2811;51.900;10.734;2023-09-30T03:39:53;13.70;99.90
5578;DHT22;2811;51.900;10.734;2023-09-30T03:42:20;13.70;99.90
5578;DHT22;2811;51.900;10.734;2023-09-30T03:44:47;13.60;99.90
5578;DHT22;2811;51.900;10.734;2023-09-30T03:47:14;13.60;99.90
5578;DHT22;2811;51.900;10.734;2023-09-30T03:49:41;13.60;99.90
5578;DHT22;2811;51.900;10.734;2023-09-30T03:52:09;13.60;99.90
5578;DHT22;2811;51.900;10.734;2023-09-30T03:54:36;13.60;99.90
5578;DHT22;2811;51.900;10.734;2023-09-30T03:57:04;13.60;99.90
5578;DHT22;2811;51.900;10.734;2023-09-30T03:59:31;13.70;99.90
5578;DHT22;2811;51.900;10.734;2023-09-30T04:01:58;13.70;99.90
5578;DHT22;2811;51.900;10.734;2023-09-30T04:04:25;13.70;99.90
5578;DHT22;2811;51.900;10.734;2023-09-30T04:06:51;13.70;99.90
5578;DHT22;2811;51.900;10.734;2023-09-30T04:09:19;13.60;99.90
5578;DHT22;2811;51.900;10.734;2023-09-30T04:11:46;13.50;99.90
5578;DHT22;2811;51.900;10.734;2023-09-30T04:14:14;14.00;99.90
5578;DHT22;2811;51.900;10.734;2023-09-30T04:16:42;13.60;99.90
5578;DHT22;2811;51.900;10.734;2023-09-30T04:19:10;13.50;99.90
5578;DHT22;2811;51.900;10.734;2023-09-30T04:21:36;13.50;99.90
5578;DHT22;2811;51.900;10.734;2023-09-30T04:24:04;13.50;99.90
5578;DHT22;2811;51.900;10.734;2023-09-30T04:26:32;13.50;99.90
5578;DHT22;2811;51.900;10.734;2023-09-30T04:28:59;13.50;99.90
5578;DHT22;2811;51.900;10.734;2023-09-30T04:31:28;13.40;99.90
5578;DHT22;2811;51.900;10.734;2023-09-30T04:33:55;13.30;99.90
5578;DHT22;2811;51.900;10.734;2023-09-30T04:36:23;13.30;99.90
5578;DHT22;2811;51.900;10.734;2023-09-30T04:38:50;13.20;99.90
5578;DHT22;2811;51.900;10.734;2023-09-30T04:41:16;13.20;99.90
5578;DHT22;2811;51.900;10.734;2023-09-30T04:43:44;13.30;99.90
5578;DHT22;2811;51.900;10.734;2023-09-30T04:46:11;13.40;99.90
5578;DHT22;2811;51.900;10.734;2023-09-30T04:48:40;13.40;99.90
5578;DHT22;2811;51.900;10.734;2023-09-30T04:51:07;13.30;99.90
5578;DHT22;2811;51.900;10.734;2023-09-30T04:53:34;13.10;99.90
5578;DHT22;2811;51.900;10.734;2023-09-30T04:56:02;13.10;99.90
5578;DHT22;2811;51.900;10.734;2023-09-30T04:58:29;13.10;99.90
5578;DHT22;2811;51.900;10.734;2023-09-30T05:00:57;13.20;99.90
5578;DHT22;2811;51.900;10.734;2023-09-30T05:03:23;13.00;99.90
5578;DHT22;2811;51.900;10.734;2023-09-30T05:05:52;13.00;99.90
5578;DHT22;2811;51.900;10.734;2023-09-30T05:08:22;13.10;99.90
5578;DHT22;2811;51.900;10.734;2023-09-30T05:10:48;13.10;99.90
5578;DHT22;2811;51.900;10.734;2023-09-30T05:13:15;13.00;99.90
5578;DHT22;2811;51.900;10.734;2023-09-30T05:15:43;13.30;99.90
5578;DHT22;2811;51.900;10.734;2023-09-30T05:18:09;13.10;99.90
5578;DHT22;2811;51.900;10.734;2023-09-30T05:20:36;13.00;99.90
5578;DHT22;2811;51.900;10.734;2023-09-30T05:23:06;13.00;99.90
5578;DHT22;2811;51.900;10.734;2023-09-30T05:25:33;13.10;99.90
5578;DHT22;2811;51.900;10.734;2023-09-30T05:28:00;13.10;99.90
5578;DHT22;2811;51.900;10.734;2023-09-30T05:30:27;13.10;99.90
5578;DHT22;2811;51.900;10.734;2023-09-30T05:32:54;13.10;99.90
5578;DHT22;2811;51.900;10.734;2023-09-30T05:35:20;13.10;99.90
5578;DHT22;2811;51.900;10.734;2023-09-30T05:37:48;13.00;99.90
5578;DHT22;2811;51.900;10.734;2023-09-30T05:40:19;13.10;99.90
5578;DHT22;2811;51.900;10.734;2023-09-30T05:42:51;13.10;99.90
5578;DHT22;2811;51.900;10.734;2023-09-30T05:45:18;13.20;99.90
5578;DHT22;2811;51.900;10.734;2023-09-30T05:47:44;13.20;99.90
5578;DHT22;2811;51.900;10.734;2023-09-30T05:50:11;13.30;99.90
5578;DHT22;2811;51.900;10.734;2023-09-30T05:52:41;13.30;99.90
5578;DHT22;2811;51.900;10.734;2023-09-30T05:55:08;13.30;99.90
5578;DHT22;2811;51.900;10.734;2023-09-30T05:57:37;13.20;99.90
5578;DHT22;2811;51.900;10.734;2023-09-30T06:00:05;13.30;99.90
5578;DHT22;2811;51.900;10.734;2023-09-30T06:02:46;13.40;99.90
5578;DHT22;2811;51.900;10.734;2023-09-30T06:05:13;13.50;99.90
5578;DHT22;2811;51.900;10.734;2023-09-30T06:07:41;13.50;99.90
5578;DHT22;2811;51.900;10.734;2023-09-30T06:10:11;13.70;99.90
5578;DHT22;2811;51.900;10.734;2023-09-30T06:12:39;13.70;99.90
5578;DHT22;2811;51.900;10.734;2023-09-30T06:15:08;13.90;99.90
5578;DHT22;2811;51.900;10.734;2023-09-30T06:17:35;14.00;99.90
5578;DHT22;2811;51.900;10.734;2023-09-30T06:20:04;14.10;99.90
5578;DHT22;2811;51.900;10.734;2023-09-30T06:22:35;14.20;99.90
5578;DHT22;2811;51.900;10.734;2023-09-30T06:25:01;14.20;99.90
5578;DHT22;2811;51.900;10.734;2023-09-30T06:27:29;14.30;99.90
5578;DHT22;2811;51.900;10.734;2023-09-30T06:29:57;14.40;99.90
5578;DHT22;2811;51.900;10.734;2023-09-30T06:32:24;14.50;99.90
5578;DHT22;2811;51.900;10.734;2023-09-30T06:34:51;14.70;99.90
5578;DHT22;2811;51.900;10.734;2023-09-30T06:37:18;14.70;99.90
5578;DHT22;2811;51.900;10.734;2023-09-30T06:39:46;14.70;99.90
5578;DHT22;2811;51.900;10.734;2023-09-30T06:42:14;14.70;99.90
5578;DHT22;2811;51.900;10.734;2023-09-30T06:44:41;14.60;99.90
5578;DHT22;2811;51.900;10.734;2023-09-30T06:47:09;14.70;99.90
5578;DHT22;2811;51.900;10.734;2023-09-30T06:49:37;14.60;99.90
5578;DHT22;2811;51.900;10.734;2023-09-30T06:52:04;14.70;99.90
5578;DHT22;2811;51.900;10.734;2023-09-30T06:54:31;14.70;99.90
5578;DHT22;2811;51.900;10.734;2023-09-30T06:56:58;14.80;99.90
5578;DHT22;2811;51.900;10.734;2023-09-30T06:59:25;14.90;99.90
5578;DHT22;2811;51.900;10.734;2023-09-30T07:01:52;15.00;99.90
5578;DHT22;2811;51.900;10.734;2023-09-30T07:04:20;15.20;99.90
5578;DHT22;2811;51.900;10.734;2023-09-30T07:06:47;15.40;99.90
5578;DHT22;2811;51.900;10.734;2023-09-30T07:09:13;15.50;99.90
5578;DHT22;2811;51.900;10.734;2023-09-30T07:11:42;15.70;99.90
5578;DHT22;2811;51.900;10.734;2023-09-30T07:14:09;15.60;99.90
5578;DHT22;2811;51.900;10.734;2023-09-30T07:16:36;15.40;99.90
5578;DHT22;2811;51.900;10.734;2023-09-30T07:19:03;15.50;99.90
5578;DHT22;2811;51.900;10.734;2023-09-30T07:21:31;15.60;99.90
5578;DHT22;2811;51.900;10.734;2023-09-30T07:23:58;15.80;99.90
5578;DHT22;2811;51.900;10.734;2023-09-30T07:26:25;15.80;99.90
5578;DHT22;2811;51.900;10.734;2023-09-30T07:28:53;16.10;99.90
5578;DHT22;2811;51.900;10.734;2023-09-30T07:31:21;16.40;99.90
5578;DHT22;2811;51.900;10.734;2023-09-30T07:33:49;16.60;99.90
5578;DHT22;2811;51.900;10.734;2023-09-30T07:36:15;16.80;99.90
5578;DHT22;2811;51.900;10.734;2023-09-30T07:38:44;16.90;99.90
5578;DHT22;2811;51.900;10.734;2023-09-30T07:41:12;17.30;99.90
5578;DHT22;2811;51.900;10.734;2023-09-30T07:43:39;17.40;99.90
5578;DHT22;2811;51.900;10.734;2023-09-30T07:46:06;17.50;99.90
5578;DHT22;2811;51.900;10.734;2023-09-30T07:48:33;17.70;99.90
5578;DHT22;2811;51.900;10.734;2023-09-30T07:51:00;17.80;99.90
5578;DHT22;2811;51.900;10.734;2023-09-30T07:53:27;18.00;99.90
5578;DHT22;2811;51.900;10.734;2023-09-30T07:55:55;17.90;99.90
5578;DHT22;2811;51.900;10.734;2023-09-30T07:58:22;17.90;99.90
5578;DHT22;2811;51.900;10.734;2023-09-30T08:00:49;17.80;99.90
5578;DHT22;2811;51.900;10.734;2023-09-30T08:03:16;18.00;99.90
5578;DHT22;2811;51.900;10.734;2023-09-30T08:05:43;18.20;99.90
5578;DHT22;2811;51.900;10.734;2023-09-30T08:08:09;18.30;99.90
5578;DHT22;2811;51.900;10.734;2023-09-30T08:10:36;18.40;99.90
5578;DHT22;2811;51.900;10.734;2023-09-30T08:13:04;18.50;99.90
5578;DHT22;2811;51.900;10.734;2023-09-30T08:15:31;18.30;99.90
5578;DHT22;2811;51.900;10.734;2023-09-30T08:17:58;18.40;99.90
5578;DHT22;2811;51.900;10.734;2023-09-30T08:20:25;18.10;99.90
5578;DHT22;2811;51.900;10.734;2023-09-30T08:22:52;18.60;99.90
5578;DHT22;2811;51.900;10.734;2023-09-30T08:25:19;18.80;99.90
5578;DHT22;2811;51.900;10.734;2023-09-30T08:27:45;18.90;99.90
5578;DHT22;2811;51.900;10.734;2023-09-30T08:30:16;19.00;99.90
5578;DHT22;2811;51.900;10.734;2023-09-30T08:32:43;19.30;99.90
5578;DHT22;2811;51.900;10.734;2023-09-30T08:35:12;19.60;99.90
5578;DHT22;2811;51.900;10.734;2023-09-30T08:37:40;19.70;99.90
5578;DHT22;2811;51.900;10.734;2023-09-30T08:40:07;19.50;99.90
5578;DHT22;2811;51.900;10.734;2023-09-30T08:42:38;19.50;99.90
5578;DHT22;2811;51.900;10.734;2023-09-30T08:45:08;19.30;99.90
5578;DHT22;2811;51.900;10.734;2023-09-30T08:47:38;19.10;99.90
5578;DHT22;2811;51.900;10.734;2023-09-30T08:50:08;19.50;99.90
5578;DHT22;2811;51.900;10.734;2023-09-30T08:52:38;19.50;99.90
5578;DHT22;2811;51.900;10.734;2023-09-30T08:55:06;19.40;99.90
5578;DHT22;2811;51.900;10.734;2023-09-30T08:57:37;19.40;99.90
5578;DHT22;2811;51.900;10.734;2023-09-30T09:00:07;19.60;99.90
5578;DHT22;2811;51.900;10.734;2023-09-30T09:02:38;19.90;99.90
5578;DHT22;2811;51.900;10.734;2023-09-30T09:05:06;19.80;99.90
5578;DHT22;2811;51.900;10.734;2023-09-30T09:07:32;19.80;99.90
5578;DHT22;2811;51.900;10.734;2023-09-30T09:10:04;19.80;99.90
5578;DHT22;2811;51.900;10.734;2023-09-30T09:14:58;19.50;99.90
5578;DHT22;2811;51.900;10.734;2023-09-30T09:17:41;19.50;99.90
5578;DHT22;2811;51.900;10.734;2023-09-30T09:20:09;19.10;99.90
5578;DHT22;2811;51.900;10.734;2023-09-30T09:22:40;19.40;99.90
5578;DHT22;2811;51.900;10.734;2023-09-30T09:25:07;19.70;99.90
5578;DHT22;2811;51.900;10.734;2023-09-30T09:27:34;20.00;99.90
5578;DHT22;2811;51.900;10.734;2023-09-30T09:30:14;20.70;99.90
5578;DHT22;2811;51.900;10.734;2023-09-30T09:32:59;20.40;99.90
5578;DHT22;2811;51.900;10.734;2023-09-30T09:35:27;20.40;99.90
5578;DHT22;2811;51.900;10.734;2023-09-30T09:37:57;20.00;99.90
5578;DHT22;2811;51.900;10.734;2023-09-30T09:40:26;20.00;99.90
5578;DHT22;2811;51.900;10.734;2023-09-30T09:42:54;20.30;99.90
5578;DHT22;2811;51.900;10.734;2023-09-30T09:45:22;20.50;99.90
5578;DHT22;2811;51.900;10.734;2023-09-30T09:47:53;20.60;99.90
5578;DHT22;2811;51.900;10.734;2023-09-30T09:50:22;20.50;99.90
5578;DHT22;2811;51.900;10.734;2023-09-30T09:52:50;20.30;99.90
5578;DHT22;2811;51.900;10.734;2023-09-30T09:55:17;20.00;99.90
5578;DHT22;2811;51.900;10.734;2023-09-30T09:57:45;19.80;99.90
5578;DHT22;2811;51.900;10.734;2023-09-30T10:00:14;19.80;99.90
5578;DHT22;2811;51.900;10.734;2023-09-30T10:02:41;20.20;99.90
5578;DHT22;2811;51.900;10.734;2023-09-30T10:05:10;20.00;99.90
5578;DHT22;2811;51.900;10.734;2023-09-30T10:07:40;19.80;99.90
5578;DHT22;2811;51.900;10.734;2023-09-30T10:10:12;19.80;99.90
5578;DHT22;2811;51.900;10.734;2023-09-30T10:12:40;20.00;99.90
5578;DHT22;2811;51.900;10.734;2023-09-30T10:15:36;19.90;99.90
5578;DHT22;2811;51.900;10.734;2023-09-30T10:18:06;19.60;99.90
5578;DHT22;2811;51.900;10.734;2023-09-30T10:20:35;19.50;99.90
5578;DHT22;2811;51.900;10.734;2023-09-30T10:23:19;19.70;99.90
5578;DHT22;2811;51.900;10.734;2023-09-30T10:25:46;19.80;99.90
5578;DHT22;2811;51.900;10.734;2023-09-30T10:28:37;20.00;99.90
5578;DHT22;2811;51.900;10.734;2023-09-30T10:31:14;20.00;99.90
5578;DHT22;2811;51.900;10.734;2023-09-30T10:34:21;19.90;99.90
5578;DHT22;2811;51.900;10.734;2023-09-30T10:36:49;19.90;99.90
5578;DHT22;2811;51.900;10.734;2023-09-30T10:39:52;19.70;99.90
5578;DHT22;2811;51.900;10.734;2023-09-30T10:42:48;19.80;99.90
5578;DHT22;2811;51.900;10.734;2023-09-30T10:45:42;19.90;99.90
5578;DHT22;2811;51.900;10.734;2023-09-30T10:48:34;20.10;99.90
5578;DHT22;2811;51.900;10.734;2023-09-30T10:51:13;20.20;99.90
5578;DHT22;2811;51.900;10.734;2023-09-30T10:53:49;20.70;99.90
5578;DHT22;2811;51.900;10.734;2023-09-30T10:56:18;20.90;99.90
5578;DHT22;2811;51.900;10.734;2023-09-30T10:58:47;21.30;99.90
5578;DHT22;2811;51.900;10.734;2023-09-30T11:01:15;21.30;99.90
5578;DHT22;2811;51.900;10.734;2023-09-30T11:03:43;21.00;99.90
5578;DHT22;2811;51.900;10.734;2023-09-30T11:06:12;20.90;99.90
5578;DHT22;2811;51.900;10.734;2023-09-30T11:08:47;20.50;99.90
5578;DHT22;2811;51.900;10.734;2023-09-30T11:11:17;20.80;99.90
5578;DHT22;2811;51.900;10.734;2023-09-30T11:13:43;20.90;99.90
5578;DHT22;2811;51.900;10.734;2023-09-30T11:16:10;21.00;99.90
5578;DHT22;2811;51.900;10.734;2023-09-30T11:18:38;21.10;99.90
5578;DHT22;2811;51.900;10.734;2023-09-30T11:21:09;21.10;99.90
5578;DHT22;2811;51.900;10.734;2023-09-30T11:23:39;21.20;99.90
5578;DHT22;2811;51.900;10.734;2023-09-30T11:26:08;21.00;99.90
5578;DHT22;2811;51.900;10.734;2023-09-30T11:28:37;21.00;99.90
5578;DHT22;2811;51.900;10.734;2023-09-30T11:31:08;21.20;99.90
5578;DHT22;2811;51.900;10.734;2023-09-30T11:33:47;21.50;99.90
5578;DHT22;2811;51.900;10.734;2023-09-30T11:36:15;21.50;99.90
5578;DHT22;2811;51.900;10.734;2023-09-30T11:38:45;21.40;99.90
5578;DHT22;2811;51.900;10.734;2023-09-30T11:41:14;21.20;99.90
5578;DHT22;2811;51.900;10.734;2023-09-30T11:43:58;21.10;99.90
5578;DHT22;2811;51.900;10.734;2023-09-30T11:46:25;21.10;99.90
5578;DHT22;2811;51.900;10.734;2023-09-30T11:48:57;21.00;99.90
5578;DHT22;2811;51.900;10.734;2023-09-30T11:51:25;20.60;99.90
5578;DHT22;2811;51.900;10.734;2023-09-30T11:53:52;20.50;99.90
5578;DHT22;2811;51.900;10.734;2023-09-30T11:56:21;20.60;99.90
5578;DHT22;2811;51.900;10.734;2023-09-30T11:58:53;20.80;99.90
5578;DHT22;2811;51.900;10.734;2023-09-30T12:01:20;20.80;99.90
5578;DHT22;2811;51.900;10.734;2023-09-30T12:03:47;21.10;99.90
5578;DHT22;2811;51.900;10.734;2023-09-30T12:06:14;21.30;99.90
5578;DHT22;2811;51.900;10.734;2023-09-30T12:08:42;21.50;99.90
5578;DHT22;2811;51.900;10.734;2023-09-30T12:11:09;21.50;99.90
5578;DHT22;2811;51.900;10.734;2023-09-30T12:13:39;21.40;99.60
5578;DHT22;2811;51.900;10.734;2023-09-30T12:16:07;21.60;99.90
5578;DHT22;2811;51.900;10.734;2023-09-30T12:18:35;21.70;99.90
5578;DHT22;2811;51.900;10.734;2023-09-30T12:21:01;21.70;99.40
5578;DHT22;2811;51.900;10.734;2023-09-30T12:23:28;21.60;99.50
5578;DHT22;2811;51.900;10.734;2023-09-30T12:25:55;21.80;99.70
5578;DHT22;2811;51.900;10.734;2023-09-30T12:28:22;21.90;98.40
5578;DHT22;2811;51.900;10.734;2023-09-30T12:30:50;21.90;98.10
5578;DHT22;2811;51.900;10.734;2023-09-30T12:33:18;21.80;98.60
5578;DHT22;2811;51.900;10.734;2023-09-30T12:35:44;21.50;97.70
5578;DHT22;2811;51.900;10.734;2023-09-30T12:38:11;21.60;98.30
5578;DHT22;2811;51.900;10.734;2023-09-30T12:40:38;21.60;98.50
5578;DHT22;2811;51.900;10.734;2023-09-30T12:43:05;21.40;97.50
5578;DHT22;2811;51.900;10.734;2023-09-30T12:45:32;21.40;98.20
5578;DHT22;2811;51.900;10.734;2023-09-30T12:48:00;21.30;98.00
5578;DHT22;2811;51.900;10.734;2023-09-30T12:50:27;21.30;97.60
5578;DHT22;2811;51.900;10.734;2023-09-30T12:52:53;21.50;98.10
5578;DHT22;2811;51.900;10.734;2023-09-30T12:55:20;21.50;98.10
5578;DHT22;2811;51.900;10.734;2023-09-30T12:57:47;21.70;98.40
5578;DHT22;2811;51.900;10.734;2023-09-30T13:00:15;22.10;98.00
5578;DHT22;2811;51.900;10.734;2023-09-30T13:02:44;21.70;98.10
5578;DHT22;2811;51.900;10.734;2023-09-30T13:05:13;21.40;96.60
5578;DHT22;2811;51.900;10.734;2023-09-30T13:07:40;21.20;97.90
5578;DHT22;2811;51.900;10.734;2023-09-30T13:10:08;20.50;99.10
5578;DHT22;2811;51.900;10.734;2023-09-30T13:12:35;20.40;99.20
5578;DHT22;2811;51.900;10.734;2023-09-30T13:15:02;20.10;98.40
5578;DHT22;2811;51.900;10.734;2023-09-30T13:17:30;20.00;99.50
5578;DHT22;2811;51.900;10.734;2023-09-30T13:19:58;20.00;99.50
5578;DHT22;2811;51.900;10.734;2023-09-30T13:22:26;19.90;99.90
5578;DHT22;2811;51.900;10.734;2023-09-30T13:24:53;19.90;99.90
5578;DHT22;2811;51.900;10.734;2023-09-30T13:27:19;20.70;99.90
5578;DHT22;2811;51.900;10.734;2023-09-30T13:29:47;20.50;99.90
5578;DHT22;2811;51.900;10.734;2023-09-30T13:32:14;20.70;99.90
5578;DHT22;2811;51.900;10.734;2023-09-30T13:34:40;20.80;99.90
5578;DHT22;2811;51.900;10.734;2023-09-30T13:37:07;20.80;99.90
5578;DHT22;2811;51.900;10.734;2023-09-30T13:39:35;20.60;99.90
5578;DHT22;2811;51.900;10.734;2023-09-30T13:42:03;20.70;99.90
5578;DHT22;2811;51.900;10.734;2023-09-30T13:44:32;20.70;99.90
5578;DHT22;2811;51.900;10.734;2023-09-30T13:46:59;20.60;99.90
5578;DHT22;2811;51.900;10.734;2023-09-30T13:49:26;20.30;99.70
5578;DHT22;2811;51.900;10.734;2023-09-30T13:51:52;20.30;99.70
5578;DHT22;2811;51.900;10.734;2023-09-30T13:54:19;20.40;99.20
5578;DHT22;2811;51.900;10.734;2023-09-30T13:56:47;20.40;99.10
5578;DHT22;2811;51.900;10.734;2023-09-30T13:59:15;20.30;98.80
5578;DHT22;2811;51.900;10.734;2023-09-30T14:01:41;20.50;98.10
5578;DHT22;2811;51.900;10.734;2023-09-30T14:04:08;20.40;98.10
5578;DHT22;2811;51.900;10.734;2023-09-30T14:06:35;20.40;98.30
5578;DHT22;2811;51.900;10.734;2023-09-30T14:09:02;20.50;98.50
5578;DHT22;2811;51.900;10.734;2023-09-30T14:11:29;20.70;99.30
5578;DHT22;2811;51.900;10.734;2023-09-30T14:13:58;20.80;99.30
5578;DHT22;2811;51.900;10.734;2023-09-30T14:16:26;20.80;98.50
5578;DHT22;2811;51.900;10.734;2023-09-30T14:18:52;20.70;98.60
5578;DHT22;2811;51.900;10.734;2023-09-30T14:21:20;21.00;98.60
5578;DHT22;2811;51.900;10.734;2023-09-30T14:23:47;20.40;99.00
5578;DHT22;2811;51.900;10.734;2023-09-30T14:26:14;20.20;99.70
5578;DHT22;2811;51.900;10.734;2023-09-30T14:28:41;20.00;99.90
5578;DHT22;2811;51.900;10.734;2023-09-30T14:31:09;19.90;99.90
5578;DHT22;2811;51.900;10.734;2023-09-30T14:33:35;19.80;99.90
5578;DHT22;2811;51.900;10.734;2023-09-30T14:36:02;19.90;99.90
5578;DHT22;2811;51.900;10.734;2023-09-30T14:38:31;19.60;99.90
5578;DHT22;2811;51.900;10.734;2023-09-30T14:40:57;19.60;99.90
5578;DHT22;2811;51.900;10.734;2023-09-30T14:43:24;19.60;99.90
5578;DHT22;2811;51.900;10.734;2023-09-30T14:45:51;19.50;99.90
5578;DHT22;2811;51.900;10.734;2023-09-30T14:48:19;19.40;99.90
5578;DHT22;2811;51.900;10.734;2023-09-30T14:50:49;19.50;99.90
5578;DHT22;2811;51.900;10.734;2023-09-30T14:53:16;19.50;99.90
5578;DHT22;2811;51.900;10.734;2023-09-30T14:55:44;19.60;99.90
5578;DHT22;2811;51.900;10.734;2023-09-30T14:58:11;19.60;99.90
5578;DHT22;2811;51.900;10.734;2023-09-30T15:00:38;19.90;99.90
5578;DHT22;2811;51.900;10.734;2023-09-30T15:03:05;19.60;99.90
5578;DHT22;2811;51.900;10.734;2023-09-30T15:05:33;19.50;99.90
5578;DHT22;2811;51.900;10.734;2023-09-30T15:08:01;19.50;99.90
5578;DHT22;2811;51.900;10.734;2023-09-30T15:10:27;19.60;99.90
5578;DHT22;2811;51.900;10.734;2023-09-30T15:12:54;19.60;99.90
5578;DHT22;2811;51.900;10.734;2023-09-30T15:15:23;19.40;99.90
5578;DHT22;2811;51.900;10.734;2023-09-30T15:17:50;19.40;99.90
5578;DHT22;2811;51.900;10.734;2023-09-30T15:20:17;19.50;99.90
5578;DHT22;2811;51.900;10.734;2023-09-30T15:22:45;19.30;99.90
5578;DHT22;2811;51.900;10.734;2023-09-30T15:25:12;19.50;99.90
5578;DHT22;2811;51.900;10.734;2023-09-30T15:27:39;19.50;99.90
5578;DHT22;2811;51.900;10.734;2023-09-30T15:30:06;19.50;99.90
5578;DHT22;2811;51.900;10.734;2023-09-30T15:32:33;19.50;99.90
5578;DHT22;2811;51.900;10.734;2023-09-30T15:35:00;19.50;99.90
5578;DHT22;2811;51.900;10.734;2023-09-30T15:37:27;19.50;99.90
5578;DHT22;2811;51.900;10.734;2023-09-30T15:39:55;19.30;99.90
5578;DHT22;2811;51.900;10.734;2023-09-30T15:42:23;19.20;99.90
5578;DHT22;2811;51.900;10.734;2023-09-30T15:44:50;19.20;99.90
5578;DHT22;2811;51.900;10.734;2023-09-30T15:47:21;19.10;99.90
5578;DHT22;2811;51.900;10.734;2023-09-30T15:49:48;19.00;99.90
5578;DHT22;2811;51.900;10.734;2023-09-30T15:52:17;18.90;99.90
5578;DHT22;2811;51.900;10.734;2023-09-30T15:54:43;18.90;99.90